sensor_id;sensor_type;location;lat;lon;timestamp;pressure;altitude;pressure_sealevel;temperature;humidity
46412;BME280;32113;42.012;24.870;2023-08-08T00:00:41;98509.00;;;25.69;40.60
46412;BME280;32113;42.012;24.870;2023-08-08T00:03:07;98511.91;;;25.88;39.94
46412;BME280;32113;42.012;24.870;2023-08-08T00:05:33;98520.44;;;26.01;39.80
46412;BME280;32113;42.012;24.870;2023-08-08T00:07:58;98525.50;;;25.93;41.31
46412;BME280;32113;42.012;24.870;2023-08-08T00:10:24;98527.88;;;25.96;41.45
46412;BME280;32113;42.012;24.870;2023-08-08T00:12:49;98523.44;;;25.96;41.75
46412;BME280;32113;42.012;24.870;2023-08-08T00:15:15;98524.28;;;25.97;41.31
46412;BME280;32113;42.012;24.870;2023-08-08T00:17:40;98521.38;;;26.00;41.75
46412;BME280;32113;42.012;24.870;2023-08-08T00:20:06;98521.66;;;25.97;41.97
46412;BME280;32113;42.012;24.870;2023-08-08T00:22:32;98518.13;;;25.87;42.44
46412;BME280;32113;42.012;24.870;2023-08-08T00:24:57;98522.78;;;25.83;42.37
46412;BME280;32113;42.012;24.870;2023-08-08T00:27:23;98521.38;;;25.79;42.78
46412;BME280;32113;42.012;24.870;2023-08-08T00:29:48;98519.47;;;25.81;42.42
46412;BME280;32113;42.012;24.870;2023-08-08T00:32:13;98518.06;;;25.77;42.60
46412;BME280;32113;42.012;24.870;2023-08-08T00:34:39;98516.13;;;25.79;42.46
46412;BME280;32113;42.012;24.870;2023-08-08T00:37:04;98521.13;;;25.49;43.02
46412;BME280;32113;42.012;24.870;2023-08-08T00:39:29;98517.53;;;25.50;43.24
46412;BME280;32113;42.012;24.870;2023-08-08T00:41:54;98526.81;;;25.66;43.19
46412;BME280;32113;42.012;24.870;2023-08-08T00:44:19;98521.31;;;25.69;42.80
46412;BME280;32113;42.012;24.870;2023-08-08T00:46:45;98519.34;;;25.82;42.33
46412;BME280;32113;42.012;24.870;2023-08-08T00:49:10;98515.75;;;25.83;41.97
46412;BME280;32113;42.012;24.870;2023-08-08T00:51:35;98520.16;;;25.83;42.14
46412;BME280;32113;42.012;24.870;2023-08-08T00:54:01;98523.63;;;25.83;42.13
46412;BME280;32113;42.012;24.870;2023-08-08T00:56:26;98525.19;;;25.86;41.94
46412;BME280;32113;42.012;24.870;2023-08-08T00:58:51;98536.34;;;26.00;41.60
46412;BME280;32113;42.012;24.870;2023-08-08T01:01:17;98526.97;;;26.07;41.61
46412;BME280;32113;42.012;24.870;2023-08-08T01:03:42;98541.47;;;26.22;41.15
46412;BME280;32113;42.012;24.870;2023-08-08T01:06:13;98533.78;;;26.31;41.14
46412;BME280;32113;42.012;24.870;2023-08-08T01:09:16;98533.72;;;26.42;41.18
46412;BME280;32113;42.012;24.870;2023-08-08T01:11:32;98540.69;;;26.53;40.83
46412;BME280;32113;42.012;24.870;2023-08-08T01:13:59;98540.72;;;26.63;40.92
46412;BME280;32113;42.012;24.870;2023-08-08T01:16:26;98542.44;;;26.74;40.41
46412;BME280;32113;42.012;24.870;2023-08-08T01:18:51;98539.50;;;26.67;40.64
46412;BME280;32113;42.012;24.870;2023-08-08T01:21:17;98540.53;;;26.76;40.30
46412;BME280;32113;42.012;24.870;2023-08-08T01:23:44;98541.88;;;26.70;40.08
46412;BME280;32113;42.012;24.870;2023-08-08T01:26:11;98546.72;;;26.75;40.04
46412;BME280;32113;42.012;24.870;2023-08-08T01:28:37;98551.84;;;26.67;40.72
46412;BME280;32113;42.012;24.870;2023-08-08T01:31:02;98556.38;;;26.65;40.81
46412;BME280;32113;42.012;24.870;2023-08-08T01:33:28;98552.09;;;26.63;40.61
46412;BME280;32113;42.012;24.870;2023-08-08T01:35:54;98551.97;;;26.65;40.72
46412;BME280;32113;42.012;24.870;2023-08-08T01:38:23;98559.56;;;26.68;40.31
46412;BME280;32113;42.012;24.870;2023-08-08T01:40:51;98568.53;;;26.56;40.63
46412;BME280;32113;42.012;24.870;2023-08-08T01:43:17;98556.38;;;26.65;40.17
46412;BME280;32113;42.012;24.870;2023-08-08T01:45:43;98562.63;;;26.63;40.13
46412;BME280;32113;42.012;24.870;2023-08-08T01:48:09;98562.56;;;26.54;40.83
46412;BME280;32113;42.012;24.870;2023-08-08T01:50:35;98564.94;;;26.57;40.76
46412;BME280;32113;42.012;24.870;2023-08-08T01:53:01;98566.22;;;26.62;40.50
46412;BME280;32113;42.012;24.870;2023-08-08T01:55:26;98559.00;;;26.65;40.26
46412;BME280;32113;42.012;24.870;2023-08-08T01:57:51;98570.63;;;26.62;40.28
46412;BME280;32113;42.012;24.870;2023-08-08T02:00:17;98565.72;;;26.47;40.08
46412;BME280;32113;42.012;24.870;2023-08-08T02:02:42;98564.31;;;26.43;40.97
46412;BME280;32113;42.012;24.870;2023-08-08T02:05:07;98573.28;;;26.41;41.26
46412;BME280;32113;42.012;24.870;2023-08-08T02:07:33;98576.66;;;26.43;40.62
46412;BME280;32113;42.012;24.870;2023-08-08T02:09:58;98574.25;;;26.40;41.20
46412;BME280;32113;42.012;24.870;2023-08-08T02:12:23;98572.66;;;26.27;41.56
46412;BME280;32113;42.012;24.870;2023-08-08T02:14:48;98575.16;;;26.29;42.07
46412;BME280;32113;42.012;24.870;2023-08-08T02:17:14;98584.47;;;26.33;41.96
46412;BME280;32113;42.012;24.870;2023-08-08T02:19:39;98583.53;;;26.22;42.09
46412;BME280;32113;42.012;24.870;2023-08-08T02:22:04;98590.81;;;26.30;42.17
46412;BME280;32113;42.012;24.870;2023-08-08T02:24:29;98585.81;;;26.27;42.24
46412;BME280;32113;42.012;24.870;2023-08-08T02:26:55;98592.47;;;26.31;42.40
46412;BME280;32113;42.012;24.870;2023-08-08T02:29:20;98588.19;;;26.30;42.48
46412;BME280;32113;42.012;24.870;2023-08-08T02:31:46;98595.84;;;26.22;43.04
46412;BME280;32113;42.012;24.870;2023-08-08T02:34:11;98595.50;;;26.15;43.34
46412;BME280;32113;42.012;24.870;2023-08-08T02:36:36;98604.03;;;26.07;43.30
46412;BME280;32113;42.012;24.870;2023-08-08T02:39:01;98609.25;;;25.86;43.55
46412;BME280;32113;42.012;24.870;2023-08-08T02:41:28;98601.19;;;25.55;44.14
46412;BME280;32113;42.012;24.870;2023-08-08T02:43:53;98607.44;;;25.31;44.65
46412;BME280;32113;42.012;24.870;2023-08-08T02:46:18;98619.28;;;25.25;45.32
46412;BME280;32113;42.012;24.870;2023-08-08T02:48:44;98613.69;;;25.18;45.46
46412;BME280;32113;42.012;24.870;2023-08-08T02:51:09;98607.00;;;25.14;45.34
46412;BME280;32113;42.012;24.870;2023-08-08T02:53:34;98611.50;;;25.12;45.16
46412;BME280;32113;42.012;24.870;2023-08-08T02:56:00;98619.75;;;24.96;45.52
46412;BME280;32113;42.012;24.870;2023-08-08T02:58:25;98624.13;;;24.73;46.04
46412;BME280;32113;42.012;24.870;2023-08-08T03:00:50;98626.47;;;24.64;46.34
46412;BME280;32113;42.012;24.870;2023-08-08T03:03:15;98630.91;;;24.64;46.32
46412;BME280;32113;42.012;24.870;2023-08-08T03:05:41;98643.91;;;24.77;45.89
46412;BME280;32113;42.012;24.870;2023-08-08T03:08:06;98642.09;;;24.77;45.76
46412;BME280;32113;42.012;24.870;2023-08-08T03:10:31;98635.88;;;24.56;46.27
46412;BME280;32113;42.012;24.870;2023-08-08T03:12:56;98625.97;;;24.48;46.30
46412;BME280;32113;42.012;24.870;2023-08-08T03:15:22;98640.00;;;24.35;46.69
46412;BME280;32113;42.012;24.870;2023-08-08T03:17:47;98651.72;;;24.18;47.00
46412;BME280;32113;42.012;24.870;2023-08-08T03:20:12;98647.44;;;24.17;47.27
46412;BME280;32113;42.012;24.870;2023-08-08T03:22:38;98662.72;;;24.23;47.94
46412;BME280;32113;42.012;24.870;2023-08-08T03:25:03;98663.00;;;24.32;47.51
46412;BME280;32113;42.012;24.870;2023-08-08T03:27:29;98667.19;;;24.46;47.60
46412;BME280;32113;42.012;24.870;2023-08-08T03:29:54;98672.44;;;24.46;47.25
46412;BME280;32113;42.012;24.870;2023-08-08T03:32:20;98676.03;;;24.56;47.51
46412;BME280;32113;42.012;24.870;2023-08-08T03:34:45;98680.34;;;24.57;47.39
46412;BME280;32113;42.012;24.870;2023-08-08T03:37:10;98682.72;;;24.60;47.64
46412;BME280;32113;42.012;24.870;2023-08-08T03:39:35;98686.31;;;24.59;47.44
46412;BME280;32113;42.012;24.870;2023-08-08T03:42:01;98695.94;;;24.59;47.65
46412;BME280;32113;42.012;24.870;2023-08-08T03:44:26;98702.25;;;24.56;47.88
46412;BME280;32113;42.012;24.870;2023-08-08T03:46:51;98704.28;;;24.52;47.71
46412;BME280;32113;42.012;24.870;2023-08-08T03:49:17;98698.81;;;24.56;47.87
46412;BME280;32113;42.012;24.870;2023-08-08T03:51:42;98707.41;;;24.58;47.81
46412;BME280;32113;42.012;24.870;2023-08-08T03:54:07;98715.50;;;24.54;47.84
46412;BME280;32113;42.012;24.870;2023-08-08T03:56:33;98716.00;;;24.60;47.95
46412;BME280;32113;42.012;24.870;2023-08-08T03:58:58;98729.13;;;24.60;47.72
46412;BME280;32113;42.012;24.870;2023-08-08T04:01:23;98726.00;;;24.30;48.75
46412;BME280;32113;42.012;24.870;2023-08-08T04:03:49;98730.19;;;24.33;49.13
46412;BME280;32113;42.012;24.870;2023-08-08T04:06:14;98744.06;;;24.22;49.21
46412;BME280;32113;42.012;24.870;2023-08-08T04:08:39;98769.53;;;24.07;49.56
46412;BME280;32113;42.012;24.870;2023-08-08T04:11:05;98774.63;;;23.97;50.06
46412;BME280;32113;42.012;24.870;2023-08-08T04:13:30;98781.47;;;23.73;50.93
46412;BME280;32113;42.012;24.870;2023-08-08T04:15:55;98782.00;;;23.53;51.70
46412;BME280;32113;42.012;24.870;2023-08-08T04:18:20;98791.44;;;23.55;51.90
46412;BME280;32113;42.012;24.870;2023-08-08T04:20:46;98782.31;;;23.35;52.49
46412;BME280;32113;42.012;24.870;2023-08-08T04:23:12;98785.44;;;23.27;52.99
46412;BME280;32113;42.012;24.870;2023-08-08T04:25:37;98789.28;;;23.21;53.58
46412;BME280;32113;42.012;24.870;2023-08-08T04:28:03;98797.22;;;23.34;53.01
46412;BME280;32113;42.012;24.870;2023-08-08T04:30:28;98809.97;;;23.39;52.80
46412;BME280;32113;42.012;24.870;2023-08-08T04:32:53;98822.84;;;23.42;52.64
46412;BME280;32113;42.012;24.870;2023-08-08T04:35:19;98815.28;;;23.38;52.56
46412;BME280;32113;42.012;24.870;2023-08-08T04:37:44;98818.56;;;23.54;51.83
46412;BME280;32113;42.012;24.870;2023-08-08T04:40:09;98832.50;;;23.68;51.15
46412;BME280;32113;42.012;24.870;2023-08-08T04:42:35;98818.56;;;23.67;51.53
46412;BME280;32113;42.012;24.870;2023-08-08T04:45:00;98821.69;;;23.59;52.03
46412;BME280;32113;42.012;24.870;2023-08-08T04:47:26;98829.03;;;23.41;52.66
46412;BME280;32113;42.012;24.870;2023-08-08T04:49:51;98829.25;;;23.38;53.01
46412;BME280;32113;42.012;24.870;2023-08-08T04:52:16;98830.19;;;23.37;51.92
46412;BME280;32113;42.012;24.870;2023-08-08T04:54:42;98833.94;;;23.33;51.45
46412;BME280;32113;42.012;24.870;2023-08-08T04:57:07;98850.28;;;23.36;51.53
46412;BME280;32113;42.012;24.870;2023-08-08T04:59:32;98853.09;;;23.33;51.23
46412;BME280;32113;42.012;24.870;2023-08-08T05:01:57;98860.03;;;23.34;51.25
46412;BME280;32113;42.012;24.870;2023-08-08T05:04:23;98874.88;;;23.34;51.78
46412;BME280;32113;42.012;24.870;2023-08-08T05:06:48;98871.94;;;23.39;52.11
46412;BME280;32113;42.012;24.870;2023-08-08T05:09:13;98881.31;;;23.28;51.75
46412;BME280;32113;42.012;24.870;2023-08-08T05:11:39;98889.78;;;23.19;52.06
46412;BME280;32113;42.012;24.870;2023-08-08T05:14:04;98896.47;;;23.23;51.97
46412;BME280;32113;42.012;24.870;2023-08-08T05:16:29;98907.66;;;23.12;52.83
46412;BME280;32113;42.012;24.870;2023-08-08T05:18:54;98914.50;;;23.00;53.57
46412;BME280;32113;42.012;24.870;2023-08-08T05:21:20;98914.81;;;22.95;54.08
46412;BME280;32113;42.012;24.870;2023-08-08T05:23:46;98917.28;;;22.84;53.38
46412;BME280;32113;42.012;24.870;2023-08-08T05:26:11;98909.06;;;22.90;52.79
46412;BME280;32113;42.012;24.870;2023-08-08T05:28:36;98911.56;;;22.92;53.54
46412;BME280;32113;42.012;24.870;2023-08-08T05:31:02;98922.84;;;22.92;54.07
46412;BME280;32113;42.012;24.870;2023-08-08T05:33:27;98924.53;;;22.93;53.60
46412;BME280;32113;42.012;24.870;2023-08-08T05:35:52;98928.75;;;22.81;54.78
46412;BME280;32113;42.012;24.870;2023-08-08T05:38:18;98939.13;;;22.83;54.38
46412;BME280;32113;42.012;24.870;2023-08-08T05:40:43;98947.56;;;22.74;54.99
46412;BME280;32113;42.012;24.870;2023-08-08T05:43:08;98950.81;;;22.77;55.64
46412;BME280;32113;42.012;24.870;2023-08-08T05:45:34;98947.84;;;22.83;54.27
46412;BME280;32113;42.012;24.870;2023-08-08T05:47:59;98946.91;;;22.84;53.47
46412;BME280;32113;42.012;24.870;2023-08-08T05:50:26;98961.28;;;22.92;52.54
46412;BME280;32113;42.012;24.870;2023-08-08T05:52:52;98967.66;;;22.73;51.22
46412;BME280;32113;42.012;24.870;2023-08-08T05:55:17;98967.28;;;22.50;51.56
46412;BME280;32113;42.012;24.870;2023-08-08T05:57:42;98982.56;;;22.27;51.61
46412;BME280;32113;42.012;24.870;2023-08-08T06:00:08;98985.34;;;22.10;52.03
46412;BME280;32113;42.012;24.870;2023-08-08T06:02:36;98985.34;;;22.10;51.30
46412;BME280;32113;42.012;24.870;2023-08-08T06:05:01;98996.50;;;21.97;51.21
46412;BME280;32113;42.012;24.870;2023-08-08T06:07:26;98986.28;;;21.94;51.59
46412;BME280;32113;42.012;24.870;2023-08-08T06:09:51;98996.88;;;21.91;52.06
46412;BME280;32113;42.012;24.870;2023-08-08T06:12:17;98991.69;;;22.05;51.72
46412;BME280;32113;42.012;24.870;2023-08-08T06:14:42;99001.03;;;22.10;51.16
46412;BME280;32113;42.012;24.870;2023-08-08T06:17:07;99003.44;;;21.98;52.76
46412;BME280;32113;42.012;24.870;2023-08-08T06:19:33;99006.13;;;21.97;54.57
46412;BME280;32113;42.012;24.870;2023-08-08T06:21:58;99003.97;;;21.89;56.12
46412;BME280;32113;42.012;24.870;2023-08-08T06:24:23;99000.59;;;21.87;56.23
46412;BME280;32113;42.012;24.870;2023-08-08T06:26:48;98997.16;;;21.86;57.07
46412;BME280;32113;42.012;24.870;2023-08-08T06:29:14;99000.59;;;21.87;58.12
46412;BME280;32113;42.012;24.870;2023-08-08T06:31:39;99007.88;;;21.82;57.63
46412;BME280;32113;42.012;24.870;2023-08-08T06:34:04;99017.94;;;21.88;57.85
46412;BME280;32113;42.012;24.870;2023-08-08T06:36:30;99014.44;;;21.89;58.46
46412;BME280;32113;42.012;24.870;2023-08-08T06:38:56;99014.44;;;21.89;58.54
46412;BME280;32113;42.012;24.870;2023-08-08T06:41:21;99028.78;;;21.96;58.93
46412;BME280;32113;42.012;24.870;2023-08-08T06:43:46;99024.13;;;22.01;60.32
46412;BME280;32113;42.012;24.870;2023-08-08T06:46:12;99022.56;;;22.13;60.01
46412;BME280;32113;42.012;24.870;2023-08-08T06:48:37;99025.38;;;22.10;60.13
46412;BME280;32113;42.012;24.870;2023-08-08T06:51:02;99021.00;;;22.11;60.43
46412;BME280;32113;42.012;24.870;2023-08-08T06:53:27;99017.84;;;22.20;60.31
46412;BME280;32113;42.012;24.870;2023-08-08T06:55:53;99025.41;;;22.25;60.66
46412;BME280;32113;42.012;24.870;2023-08-08T06:58:18;99020.47;;;22.35;57.35
46412;BME280;32113;42.012;24.870;2023-08-08T07:00:43;99024.66;;;22.23;58.75
46412;BME280;32113;42.012;24.870;2023-08-08T07:03:08;99023.38;;;22.30;60.68
46412;BME280;32113;42.012;24.870;2023-08-08T07:05:34;99027.22;;;22.08;57.33
46412;BME280;32113;42.012;24.870;2023-08-08T07:07:59;99025.06;;;22.00;58.37
46412;BME280;32113;42.012;24.870;2023-08-08T07:10:24;99031.00;;;21.88;60.14
46412;BME280;32113;42.012;24.870;2023-08-08T07:12:50;99023.16;;;21.88;59.87
46412;BME280;32113;42.012;24.870;2023-08-08T07:15:15;99020.63;;;22.02;59.71
46412;BME280;32113;42.012;24.870;2023-08-08T07:17:40;99028.19;;;22.22;58.02
46412;BME280;32113;42.012;24.870;2023-08-08T07:20:06;99028.41;;;22.33;58.97
46412;BME280;32113;42.012;24.870;2023-08-08T07:22:31;99025.03;;;22.45;57.09
46412;BME280;32113;42.012;24.870;2023-08-08T07:24:57;99020.16;;;22.55;56.98
46412;BME280;32113;42.012;24.870;2023-08-08T07:27:22;99022.75;;;22.70;55.56
46412;BME280;32113;42.012;24.870;2023-08-08T07:29:48;99023.47;;;22.72;54.52
46412;BME280;32113;42.012;24.870;2023-08-08T07:32:13;99027.34;;;22.66;53.66
46412;BME280;32113;42.012;24.870;2023-08-08T07:34:38;99021.06;;;22.69;55.27
46412;BME280;32113;42.012;24.870;2023-08-08T07:37:04;99027.81;;;22.73;54.65
46412;BME280;32113;42.012;24.870;2023-08-08T07:39:29;99030.78;;;22.67;56.39
46412;BME280;32113;42.012;24.870;2023-08-08T07:41:55;99035.09;;;22.82;56.59
46412;BME280;32113;42.012;24.870;2023-08-08T07:44:20;99035.06;;;22.97;56.04
46412;BME280;32113;42.012;24.870;2023-08-08T07:46:45;99041.41;;;23.07;54.76
46412;BME280;32113;42.012;24.870;2023-08-08T07:49:11;99035.97;;;23.10;55.16
46412;BME280;32113;42.012;24.870;2023-08-08T07:51:36;99039.78;;;23.19;55.36
46412;BME280;32113;42.012;24.870;2023-08-08T07:54:01;99035.38;;;23.20;54.34
46412;BME280;32113;42.012;24.870;2023-08-08T07:56:27;99036.66;;;23.27;55.12
46412;BME280;32113;42.012;24.870;2023-08-08T07:58:52;99039.69;;;23.35;54.82
46412;BME280;32113;42.012;24.870;2023-08-08T08:01:18;99047.03;;;23.43;55.43
46412;BME280;32113;42.012;24.870;2023-08-08T08:03:43;99045.56;;;23.39;54.69
46412;BME280;32113;42.012;24.870;2023-08-08T08:06:08;99054.03;;;23.43;54.69
46412;BME280;32113;42.012;24.870;2023-08-08T08:08:34;99059.09;;;23.46;55.32
46412;BME280;32113;42.012;24.870;2023-08-08T08:11:00;99059.53;;;23.53;54.95
46412;BME280;32113;42.012;24.870;2023-08-08T08:13:26;99059.34;;;23.56;54.63
46412;BME280;32113;42.012;24.870;2023-08-08T08:15:51;99049.59;;;23.58;55.16
46412;BME280;32113;42.012;24.870;2023-08-08T08:18:16;99045.94;;;23.60;54.82
46412;BME280;32113;42.012;24.870;2023-08-08T08:20:42;99045.31;;;23.57;53.68
46412;BME280;32113;42.012;24.870;2023-08-08T08:23:07;99042.38;;;23.61;53.88
46412;BME280;32113;42.012;24.870;2023-08-08T08:25:33;99042.19;;;23.65;53.94
46412;BME280;32113;42.012;24.870;2023-08-08T08:27:58;99038.44;;;23.69;54.66
46412;BME280;32113;42.012;24.870;2023-08-08T08:30:23;99042.22;;;23.78;54.18
46412;BME280;32113;42.012;24.870;2023-08-08T08:32:52;99039.41;;;23.81;53.67
46412;BME280;32113;42.012;24.870;2023-08-08T08:35:17;99046.94;;;23.85;55.37
46412;BME280;32113;42.012;24.870;2023-08-08T08:37:43;99040.78;;;23.86;54.34
46412;BME280;32113;42.012;24.870;2023-08-08T08:40:09;99046.56;;;23.92;55.26
46412;BME280;32113;42.012;24.870;2023-08-08T08:42:34;99039.56;;;24.05;56.01
46412;BME280;32113;42.012;24.870;2023-08-08T08:45:01;99035.00;;;24.35;54.25
46412;BME280;32113;42.012;24.870;2023-08-08T08:47:26;99041.72;;;24.52;54.36
46412;BME280;32113;42.012;24.870;2023-08-08T08:49:54;99044.31;;;24.78;53.33
46412;BME280;32113;42.012;24.870;2023-08-08T08:52:20;99040.53;;;24.95;50.92
46412;BME280;32113;42.012;24.870;2023-08-08T08:54:45;99036.13;;;24.96;49.51
46412;BME280;32113;42.012;24.870;2023-08-08T08:57:11;99040.09;;;25.01;49.32
46412;BME280;32113;42.012;24.870;2023-08-08T08:59:37;99043.34;;;24.79;47.93
46412;BME280;32113;42.012;24.870;2023-08-08T09:02:02;99032.88;;;24.66;48.40
46412;BME280;32113;42.012;24.870;2023-08-08T09:04:28;99030.78;;;24.71;47.91
46412;BME280;32113;42.012;24.870;2023-08-08T09:06:53;99031.94;;;25.17;47.37
46412;BME280;32113;42.012;24.870;2023-08-08T09:09:19;99037.47;;;25.63;45.00
46412;BME280;32113;42.012;24.870;2023-08-08T09:11:50;99040.19;;;25.97;46.00
46412;BME280;32113;42.012;24.870;2023-08-08T09:14:33;99020.59;;;26.26;42.29
46412;BME280;32113;42.012;24.870;2023-08-08T09:16:58;99024.66;;;26.30;42.03
46412;BME280;32113;42.012;24.870;2023-08-08T09:19:24;99038.28;;;26.47;41.73
46412;BME280;32113;42.012;24.870;2023-08-08T09:21:50;99022.16;;;26.74;39.92
46412;BME280;32113;42.012;24.870;2023-08-08T09:24:15;99010.09;;;26.95;40.63
46412;BME280;32113;42.012;24.870;2023-08-08T09:26:41;99014.00;;;27.45;40.18
46412;BME280;32113;42.012;24.870;2023-08-08T09:29:07;99009.25;;;27.71;39.60
46412;BME280;32113;42.012;24.870;2023-08-08T09:31:34;99005.03;;;28.01;37.87
46412;BME280;32113;42.012;24.870;2023-08-08T09:34:00;99001.41;;;28.02;36.87
46412;BME280;32113;42.012;24.870;2023-08-08T09:36:25;98997.03;;;28.34;38.18
46412;BME280;32113;42.012;24.870;2023-08-08T09:38:52;98992.22;;;28.49;36.41
46412;BME280;32113;42.012;24.870;2023-08-08T09:41:18;98999.53;;;28.77;36.63
46412;BME280;32113;42.012;24.870;2023-08-08T09:43:44;98996.97;;;28.96;36.49
46412;BME280;32113;42.012;24.870;2023-08-08T09:46:09;98986.00;;;29.01;35.66
46412;BME280;32113;42.012;24.870;2023-08-08T09:48:35;98994.06;;;29.00;35.54
46412;BME280;32113;42.012;24.870;2023-08-08T09:51:01;98980.59;;;29.13;33.80
46412;BME280;32113;42.012;24.870;2023-08-08T09:53:27;98977.69;;;29.16;34.92
46412;BME280;32113;42.012;24.870;2023-08-08T09:55:56;98980.84;;;29.00;33.80
46412;BME280;32113;42.012;24.870;2023-08-08T09:58:21;98978.97;;;28.80;33.43
46412;BME280;32113;42.012;24.870;2023-08-08T10:00:50;98993.13;;;28.69;34.36
46412;BME280;32113;42.012;24.870;2023-08-08T10:03:19;98980.78;;;28.80;33.55
46412;BME280;32113;42.012;24.870;2023-08-08T10:05:44;98979.81;;;28.81;33.97
46412;BME280;32113;42.012;24.870;2023-08-08T10:08:09;98975.16;;;28.94;32.75
46412;BME280;32113;42.012;24.870;2023-08-08T10:10:35;98988.38;;;29.04;33.30
46412;BME280;32113;42.012;24.870;2023-08-08T10:13:02;98980.31;;;29.35;33.53
46412;BME280;32113;42.012;24.870;2023-08-08T10:15:27;98979.41;;;29.56;32.17
46412;BME280;32113;42.012;24.870;2023-08-08T10:17:53;98978.66;;;29.74;31.89
46412;BME280;32113;42.012;24.870;2023-08-08T10:20:19;98978.22;;;29.88;32.99
46412;BME280;32113;42.012;24.870;2023-08-08T10:22:45;98989.38;;;29.72;30.68
46412;BME280;32113;42.012;24.870;2023-08-08T10:25:45;98985.88;;;29.82;30.28
46412;BME280;32113;42.012;24.870;2023-08-08T10:30:28;98985.47;;;29.76;29.98
46412;BME280;32113;42.012;24.870;2023-08-08T10:32:55;98979.78;;;29.81;29.65
46412;BME280;32113;42.012;24.870;2023-08-08T10:35:21;98974.69;;;29.98;30.36
46412;BME280;32113;42.012;24.870;2023-08-08T10:37:52;98978.31;;;30.16;29.83
46412;BME280;32113;42.012;24.870;2023-08-08T10:40:18;98973.50;;;30.40;29.55
46412;BME280;32113;42.012;24.870;2023-08-08T10:42:44;98967.94;;;30.61;29.31
46412;BME280;32113;42.012;24.870;2023-08-08T10:45:11;98971.88;;;30.57;28.55
46412;BME280;32113;42.012;24.870;2023-08-08T10:47:39;98965.31;;;30.33;29.34
46412;BME280;32113;42.012;24.870;2023-08-08T10:50:08;98958.00;;;30.45;28.40
46412;BME280;32113;42.012;24.870;2023-08-08T10:55:23;98956.50;;;30.61;28.76
46412;BME280;32113;42.012;24.870;2023-08-08T10:57:58;98962.50;;;30.35;28.03
46412;BME280;32113;42.012;24.870;2023-08-08T11:00:25;98969.25;;;30.19;28.33
46412;BME280;32113;42.012;24.870;2023-08-08T11:02:51;98966.69;;;30.37;29.68
46412;BME280;32113;42.012;24.870;2023-08-08T11:05:18;98956.34;;;30.44;28.63
46412;BME280;32113;42.012;24.870;2023-08-08T11:07:43;98945.41;;;30.57;28.37
46412;BME280;32113;42.012;24.870;2023-08-08T11:10:09;98957.13;;;30.54;29.38
46412;BME280;32113;42.012;24.870;2023-08-08T11:12:34;98951.28;;;30.51;28.44
46412;BME280;32113;42.012;24.870;2023-08-08T11:14:59;98948.34;;;30.54;28.60
46412;BME280;32113;42.012;24.870;2023-08-08T11:17:25;98945.66;;;30.64;28.50
46412;BME280;32113;42.012;24.870;2023-08-08T11:19:50;98952.19;;;30.41;28.20
46412;BME280;32113;42.012;24.870;2023-08-08T11:22:15;98951.03;;;30.06;28.36
46412;BME280;32113;42.012;24.870;2023-08-08T11:24:41;98951.34;;;30.03;28.31
46412;BME280;32113;42.012;24.870;2023-08-08T11:27:06;98940.63;;;29.95;29.26
46412;BME280;32113;42.012;24.870;2023-08-08T11:29:31;98935.41;;;29.75;28.54
46412;BME280;32113;42.012;24.870;2023-08-08T11:31:59;98932.91;;;29.73;28.75
46412;BME280;32113;42.012;24.870;2023-08-08T11:34:24;98930.53;;;29.70;28.53
46412;BME280;32113;42.012;24.870;2023-08-08T11:36:51;98929.94;;;29.86;29.61
46412;BME280;32113;42.012;24.870;2023-08-08T11:39:16;98928.75;;;30.09;29.02
46412;BME280;32113;42.012;24.870;2023-08-08T11:41:42;98933.97;;;30.28;28.63
46412;BME280;32113;42.012;24.870;2023-08-08T11:44:07;98929.56;;;30.47;28.79
46412;BME280;32113;42.012;24.870;2023-08-08T11:46:33;98921.38;;;30.40;28.21
46412;BME280;32113;42.012;24.870;2023-08-08T11:49:05;98921.47;;;30.49;28.28
46412;BME280;32113;42.012;24.870;2023-08-08T11:51:32;98922.09;;;30.42;27.46
46412;BME280;32113;42.012;24.870;2023-08-08T11:53:57;98915.81;;;30.62;28.55
46412;BME280;32113;42.012;24.870;2023-08-08T11:56:24;98910.09;;;30.66;27.15
46412;BME280;32113;42.012;24.870;2023-08-08T11:58:50;98915.69;;;30.63;27.00
46412;BME280;32113;42.012;24.870;2023-08-08T12:01:19;98908.34;;;30.57;27.02
46412;BME280;32113;42.012;24.870;2023-08-08T12:03:45;98906.69;;;30.56;26.92
46412;BME280;32113;42.012;24.870;2023-08-08T12:06:11;98900.84;;;30.52;27.15
46412;BME280;32113;42.012;24.870;2023-08-08T12:08:37;98898.53;;;30.67;26.47
46412;BME280;32113;42.012;24.870;2023-08-08T12:11:02;98895.16;;;30.75;25.87
46412;BME280;32113;42.012;24.870;2023-08-08T12:13:29;98883.59;;;30.76;25.77
46412;BME280;32113;42.012;24.870;2023-08-08T12:15:55;98880.13;;;30.66;26.45
46412;BME280;32113;42.012;24.870;2023-08-08T12:18:23;98885.66;;;30.54;26.03
46412;BME280;32113;42.012;24.870;2023-08-08T12:20:49;98886.94;;;30.50;25.63
46412;BME280;32113;42.012;24.870;2023-08-08T12:23:14;98885.13;;;30.51;25.68
46412;BME280;32113;42.012;24.870;2023-08-08T12:25:41;98877.19;;;30.51;25.99
46412;BME280;32113;42.012;24.870;2023-08-08T12:28:07;98869.31;;;30.59;26.70
46412;BME280;32113;42.012;24.870;2023-08-08T12:30:32;98863.38;;;30.75;26.63
46412;BME280;32113;42.012;24.870;2023-08-08T12:32:58;98864.06;;;30.96;26.07
46412;BME280;32113;42.012;24.870;2023-08-08T12:35:23;98858.06;;;31.12;25.97
46412;BME280;32113;42.012;24.870;2023-08-08T12:37:51;98846.03;;;31.17;26.12
46412;BME280;32113;42.012;24.870;2023-08-08T12:40:17;98856.09;;;31.14;25.72
46412;BME280;32113;42.012;24.870;2023-08-08T12:42:42;98861.69;;;31.11;26.02
46412;BME280;32113;42.012;24.870;2023-08-08T12:45:07;98857.91;;;31.13;26.64
46412;BME280;32113;42.012;24.870;2023-08-08T12:47:33;98865.16;;;31.11;25.28